Niarada, Montana
Current Conditions -  °F | °C
As of 12:53 PM on Thursday 23 Oct 2014 (Local Time) from KMSO Reporting Station
Clear Clear  
Wind Chill: 59°   Ceiling: Unl
Heat Index: 59°   Visibility: 10mi
Dew Point: 43°   Wind: 14mph
Humidity: 55%   Direction: 140°SE
Pressure: 29.89"   Gusts: NA
Location:  47.5344°N, 114.56°W
Report Text: KMSO 231853Z 14012KT 10SM CLR 15/06 A2989 RMK AO2 SLP116 T01500061
Loading
Personal Weather Stations






























Interactive Weather Map
Tropical Storm Tracking
New forecast layout! Learn more

10-Day Weather Forecast

Advertisements
Track Severe Weather on mobile